createdAt,value
2023-05-26T00:00:22.549Z,99.99
2023-05-26T00:01:22.445Z,99.99
2023-05-26T00:02:22.418Z,99.99
2023-05-26T00:03:22.450Z,99.99
2023-05-26T00:04:22.278Z,99.99
2023-05-26T00:05:22.127Z,99.99
2023-05-26T00:06:22.101Z,99.99
2023-05-26T00:07:21.980Z,99.99
2023-05-26T00:08:21.897Z,99.99
2023-05-26T00:09:21.866Z,99.99
2023-05-26T00:10:21.753Z,99.99
2023-05-26T00:11:21.661Z,99.99
2023-05-26T00:12:21.584Z,99.99
2023-05-26T00:13:21.512Z,99.99
2023-05-26T00:14:21.434Z,99.99
2023-05-26T00:15:21.369Z,99.99
2023-05-26T00:16:21.300Z,99.99
2023-05-26T00:17:21.200Z,99.99
2023-05-26T00:18:21.201Z,99.99
2023-05-26T00:19:21.042Z,99.99
2023-05-26T00:20:21.002Z,99.99
2023-05-26T00:21:20.904Z,99.99
2023-05-26T00:22:20.829Z,99.99
2023-05-26T00:23:20.734Z,99.99
2023-05-26T00:24:20.657Z,99.99
2023-05-26T00:25:20.570Z,99.99
2023-05-26T00:26:20.516Z,99.99
2023-05-26T00:27:20.416Z,99.99
2023-05-26T00:28:20.339Z,99.99
2023-05-26T00:29:29.205Z,99.99
2023-05-26T00:30:20.185Z,99.99
2023-05-26T00:31:20.161Z,99.99
2023-05-26T00:32:20.033Z,99.99
2023-05-26T00:33:19.953Z,99.99
2023-05-26T00:34:19.871Z,99.99
2023-05-26T00:35:19.817Z,99.99
2023-05-26T00:36:19.715Z,99.99
2023-05-26T00:37:19.652Z,99.99
2023-05-26T00:38:19.558Z,99.99
2023-05-26T00:39:19.489Z,99.99
2023-05-26T00:40:19.398Z,99.99
2023-05-26T00:41:19.328Z,99.99
2023-05-26T00:42:19.247Z,99.99
2023-05-26T00:43:19.163Z,99.99
2023-05-26T00:44:19.086Z,99.99
2023-05-26T00:45:19.011Z,99.99
2023-05-26T00:46:18.930Z,99.99
2023-05-26T00:47:18.892Z,99.99
2023-05-26T00:48:18.793Z,99.99
2023-05-26T00:49:18.696Z,99.99
2023-05-26T00:50:18.622Z,99.99
2023-05-26T00:51:18.541Z,99.99
2023-05-26T00:52:18.470Z,99.99
2023-05-26T00:53:18.384Z,99.99
2023-05-26T00:54:18.310Z,99.99
2023-05-26T00:55:18.230Z,99.99
2023-05-26T00:56:18.155Z,99.99
2023-05-26T00:57:18.083Z,99.99
2023-05-26T00:58:17.987Z,99.99
2023-05-26T00:59:17.909Z,99.99
2023-05-26T01:00:17.841Z,99.99
2023-05-26T01:01:17.803Z,99.99
2023-05-26T01:02:17.727Z,99.99
2023-05-26T01:03:17.634Z,99.99
2023-05-26T01:04:17.516Z,99.99
2023-05-26T01:05:17.442Z,99.99
2023-05-26T01:06:17.369Z,99.99
2023-05-26T01:07:17.287Z,99.99
2023-05-26T01:08:17.230Z,99.99
2023-05-26T01:09:17.133Z,99.99
2023-05-26T01:10:17.047Z,99.99
2023-05-26T01:11:16.971Z,99.99
2023-05-26T01:12:16.896Z,99.99
2023-05-26T01:13:16.822Z,99.99
2023-05-26T01:14:16.744Z,99.99
2023-05-26T01:15:16.672Z,99.99
2023-05-26T01:16:16.620Z,99.99
2023-05-26T01:17:16.500Z,99.99
2023-05-26T01:18:16.440Z,99.99
2023-05-26T01:19:16.349Z,99.99
2023-05-26T01:20:16.323Z,99.99
2023-05-26T01:21:16.197Z,99.99
2023-05-26T01:22:16.112Z,99.99
2023-05-26T01:23:16.035Z,99.99
2023-05-26T01:24:15.957Z,99.99
2023-05-26T01:25:15.881Z,99.99
2023-05-26T01:26:15.797Z,99.99
2023-05-26T01:27:15.721Z,99.99
2023-05-26T01:28:15.652Z,99.99
2023-05-26T01:29:15.563Z,99.99
2023-05-26T01:30:15.494Z,99.99
2023-05-26T01:31:15.417Z,99.99
2023-05-26T01:32:15.335Z,99.99
2023-05-26T01:33:15.351Z,99.99
2023-05-26T01:34:15.190Z,99.99
2023-05-26T01:35:15.102Z,99.99
2023-05-26T01:36:15.018Z,99.99
2023-05-26T01:37:15.723Z,99.99
2023-05-26T01:38:14.863Z,99.99
2023-05-26T01:39:14.781Z,99.99
2023-05-26T01:40:14.719Z,99.99
2023-05-26T01:41:14.628Z,99.99
2023-05-26T01:42:29.829Z,99.99
2023-05-26T01:43:14.469Z,99.99
2023-05-26T01:44:14.390Z,99.99
2023-05-26T01:45:14.312Z,99.99
2023-05-26T01:46:14.264Z,99.99
2023-05-26T01:47:14.168Z,99.99
2023-05-26T01:48:14.076Z,99.99
2023-05-26T01:49:13.999Z,99.99
2023-05-26T01:50:13.924Z,99.99
2023-05-26T01:51:14.116Z,99.99
2023-05-26T01:52:13.781Z,99.99
2023-05-26T01:53:13.687Z,99.99
2023-05-26T01:54:13.604Z,99.99
2023-05-26T01:55:13.531Z,99.99
2023-05-26T01:56:13.454Z,99.99
2023-05-26T01:57:13.369Z,99.99
2023-05-26T01:58:13.295Z,99.99
2023-05-26T01:59:13.218Z,99.99
2023-05-26T02:00:13.152Z,99.99
2023-05-26T02:01:13.067Z,99.99
2023-05-26T02:02:13.027Z,99.99
2023-05-26T02:03:13.001Z,99.99
2023-05-26T02:04:12.828Z,99.99
2023-05-26T02:05:12.743Z,99.99
2023-05-26T02:06:12.667Z,99.99
2023-05-26T02:07:12.590Z,99.99
2023-05-26T02:08:12.513Z,99.99
2023-05-26T02:09:12.433Z,99.99
2023-05-26T02:10:12.359Z,99.99
2023-05-26T02:11:12.277Z,99.99
2023-05-26T02:12:12.198Z,99.99
2023-05-26T02:13:12.127Z,99.99
2023-05-26T02:14:12.038Z,99.99
2023-05-26T02:15:11.989Z,99.99
2023-05-26T02:16:11.923Z,99.99
2023-05-26T02:17:11.851Z,99.99
2023-05-26T02:18:11.807Z,99.99
2023-05-26T02:19:11.655Z,99.99
2023-05-26T02:20:11.585Z,99.99
2023-05-26T02:21:11.497Z,99.99
2023-05-26T02:22:11.409Z,99.99
2023-05-26T02:23:11.340Z,99.99
2023-05-26T02:24:11.265Z,99.99
2023-05-26T02:25:11.179Z,99.99
2023-05-26T02:26:11.106Z,99.99
2023-05-26T02:27:11.029Z,99.99
2023-05-26T02:28:10.941Z,99.99
2023-05-26T02:29:10.866Z,99.99
2023-05-26T02:30:10.801Z,99.99
2023-05-26T02:31:10.791Z,99.99
2023-05-26T02:32:10.662Z,99.99
2023-05-26T02:33:10.586Z,99.99
2023-05-26T02:34:10.475Z,99.99
2023-05-26T02:35:10.396Z,99.99
2023-05-26T02:36:10.322Z,99.99
2023-05-26T02:37:10.235Z,99.99
2023-05-26T02:38:10.160Z,99.99
2023-05-26T02:39:10.088Z,99.99
2023-05-26T02:40:10.005Z,99.99
2023-05-26T02:41:09.960Z,99.99
2023-05-26T02:42:09.852Z,99.99
2023-05-26T02:43:09.767Z,99.99
2023-05-26T02:44:09.690Z,99.99
2023-05-26T02:45:09.612Z,99.99
2023-05-26T02:46:09.574Z,99.99
2023-05-26T02:47:09.499Z,99.99
2023-05-26T02:48:09.479Z,99.99
2023-05-26T02:49:09.296Z,99.99
2023-05-26T02:50:09.219Z,99.99
2023-05-26T02:51:09.142Z,99.99
2023-05-26T02:52:09.068Z,99.99
2023-05-26T02:53:08.980Z,99.99
2023-05-26T02:54:08.911Z,99.99
2023-05-26T02:55:08.839Z,99.99
2023-05-26T02:56:08.755Z,99.99
2023-05-26T02:57:08.668Z,99.99
2023-05-26T02:58:08.594Z,99.99
2023-05-26T02:59:08.511Z,99.99
2023-05-26T03:00:08.437Z,99.99
2023-05-26T03:01:08.399Z,99.99
2023-05-26T03:02:08.304Z,99.99
2023-05-26T03:03:08.299Z,99.99
2023-05-26T03:04:08.125Z,99.99
2023-05-26T03:05:08.047Z,99.99
2023-05-26T03:06:07.984Z,99.99
2023-05-26T03:07:07.889Z,99.99
2023-05-26T03:08:07.852Z,99.99
2023-05-26T03:09:07.728Z,99.99
2023-05-26T03:10:07.678Z,99.99
2023-05-26T03:11:10.418Z,99.99
2023-05-26T03:12:07.510Z,99.99
2023-05-26T03:13:07.422Z,99.99
2023-05-26T03:14:07.351Z,99.99
2023-05-26T03:15:07.272Z,99.99
2023-05-26T03:16:07.188Z,99.99
2023-05-26T03:17:07.179Z,99.99
2023-05-26T03:18:07.058Z,99.99
2023-05-26T03:19:06.955Z,99.99
2023-05-26T03:20:06.908Z,99.99
2023-05-26T03:21:06.795Z,99.99
2023-05-26T03:22:38.165Z,99.99
2023-05-26T03:23:06.647Z,99.99
2023-05-26T03:24:06.558Z,99.99
2023-05-26T03:25:06.481Z,99.99
2023-05-26T03:26:06.398Z,99.99
2023-05-26T03:27:06.320Z,99.99
2023-05-26T03:28:06.265Z,99.99
2023-05-26T03:29:06.186Z,99.99
2023-05-26T03:30:06.092Z,99.99
2023-05-26T03:31:06.030Z,99.99
2023-05-26T03:32:05.935Z,99.99
2023-05-26T03:33:05.880Z,99.99
2023-05-26T03:34:05.791Z,99.99
2023-05-26T03:35:05.698Z,99.99
2023-05-26T03:36:05.615Z,99.99
2023-05-26T03:37:05.569Z,99.99
2023-05-26T03:38:05.462Z,99.99
2023-05-26T03:39:05.379Z,99.99
2023-05-26T03:40:05.306Z,99.99
2023-05-26T03:41:05.238Z,99.99
2023-05-26T03:42:05.151Z,99.99
2023-05-26T03:43:05.069Z,99.99
2023-05-26T03:44:04.990Z,99.99
2023-05-26T03:45:04.925Z,99.99
2023-05-26T03:46:04.853Z,99.99
2023-05-26T03:47:04.752Z,99.99
2023-05-26T03:48:04.702Z,99.99
2023-05-26T03:49:04.600Z,99.99
2023-05-26T03:50:06.802Z,99.99
2023-05-26T03:51:04.441Z,99.99
2023-05-26T03:52:04.363Z,99.99
2023-05-26T03:53:04.297Z,99.99
2023-05-26T03:54:04.206Z,99.99
2023-05-26T03:55:04.123Z,99.99
2023-05-26T03:56:04.044Z,99.99
2023-05-26T03:57:03.975Z,99.99
2023-05-26T03:58:03.890Z,99.99
2023-05-26T03:59:03.807Z,99.99
2023-05-26T04:00:03.731Z,99.99
2023-05-26T04:01:03.656Z,99.99
2023-05-26T04:02:03.598Z,99.99
2023-05-26T04:03:03.581Z,99.99
2023-05-26T04:04:03.445Z,99.99
2023-05-26T04:05:03.336Z,99.99
2023-05-26T04:06:03.258Z,99.99
2023-05-26T04:07:03.178Z,99.99
2023-05-26T04:08:03.104Z,99.99
2023-05-26T04:09:03.022Z,99.99
2023-05-26T04:10:02.946Z,99.99
2023-05-26T04:11:02.866Z,99.99
2023-05-26T04:12:02.790Z,99.99
2023-05-26T04:13:02.719Z,99.99
2023-05-26T04:14:02.635Z,99.99
2023-05-26T04:15:02.555Z,99.99
2023-05-26T04:16:02.532Z,99.99
2023-05-26T04:17:02.470Z,99.99
2023-05-26T04:18:02.372Z,99.99
2023-05-26T04:19:02.232Z,99.99
2023-05-26T04:20:04.133Z,99.99
2023-05-26T04:21:02.077Z,99.99
2023-05-26T04:22:01.997Z,99.99
2023-05-26T04:23:01.923Z,99.99
2023-05-26T04:24:01.851Z,99.99
2023-05-26T04:25:01.762Z,99.99
2023-05-26T04:26:01.683Z,99.99
2023-05-26T04:27:01.626Z,99.99
2023-05-26T04:28:01.527Z,99.99
2023-05-26T04:29:01.454Z,99.99
2023-05-26T04:30:01.385Z,99.99
2023-05-26T04:31:01.294Z,99.99
2023-05-26T04:32:01.235Z,99.99
2023-05-26T04:33:01.167Z,99.99
2023-05-26T04:34:01.061Z,99.99
2023-05-26T04:35:00.980Z,99.99
2023-05-26T04:36:00.915Z,99.99
2023-05-26T04:37:00.823Z,99.99
2023-05-26T04:38:00.746Z,99.99
2023-05-26T04:39:00.671Z,99.99
2023-05-26T04:40:00.604Z,99.99
2023-05-26T04:41:00.513Z,99.99
2023-05-26T04:42:00.463Z,99.99
2023-05-26T04:43:00.354Z,99.99
2023-05-26T04:44:00.282Z,99.99
2023-05-26T04:45:00.196Z,99.99
2023-05-26T04:46:00.173Z,99.99
2023-05-26T04:47:00.040Z,99.99
2023-05-26T04:47:59.999Z,99.99
2023-05-26T04:48:59.879Z,99.99
2023-05-26T04:49:59.806Z,99.99
2023-05-26T04:50:59.726Z,99.99
2023-05-26T04:51:59.644Z,99.99
2023-05-26T04:52:59.571Z,99.99
2023-05-26T04:53:59.483Z,99.99
2023-05-26T04:54:59.415Z,99.99
2023-05-26T04:55:59.332Z,99.99
2023-05-26T04:56:59.272Z,99.99
2023-05-26T04:57:59.175Z,99.99
2023-05-26T04:58:59.100Z,99.99
2023-05-26T04:59:59.018Z,99.99
2023-05-26T05:00:58.941Z,99.99
2023-05-26T05:01:58.924Z,99.99
2023-05-26T05:02:58.834Z,99.99
2023-05-26T05:03:58.732Z,99.99
2023-05-26T05:04:58.626Z,99.99
2023-05-26T05:05:58.555Z,99.99
2023-05-26T05:06:58.476Z,99.99
2023-05-26T05:07:58.388Z,99.99
2023-05-26T05:08:58.308Z,99.99
2023-05-26T05:09:58.259Z,99.99
2023-05-26T05:10:58.158Z,99.99
2023-05-26T05:11:58.073Z,99.99
2023-05-26T05:12:58.004Z,99.99
2023-05-26T05:13:57.915Z,99.99
2023-05-26T05:14:57.842Z,99.99
2023-05-26T05:15:57.772Z,99.99
2023-05-26T05:16:57.679Z,99.99
2023-05-26T05:17:57.660Z,99.99
2023-05-26T05:18:57.536Z,99.99
2023-05-26T05:20:13.517Z,99.99
2023-05-26T05:20:57.378Z,99.99
2023-05-26T05:21:57.304Z,99.99
2023-05-26T05:22:57.223Z,99.99
2023-05-26T05:23:57.144Z,99.99
2023-05-26T05:24:57.060Z,99.99
2023-05-26T05:25:56.980Z,99.99
2023-05-26T05:26:56.896Z,99.99
2023-05-26T05:27:56.823Z,99.99
2023-05-26T05:28:56.750Z,99.99
2023-05-26T05:29:56.676Z,99.99
2023-05-26T05:30:56.585Z,99.99
2023-05-26T05:31:56.573Z,99.99
2023-05-26T05:32:56.579Z,99.99
2023-05-26T05:33:56.352Z,99.99
2023-05-26T05:34:56.331Z,99.99
2023-05-26T05:35:56.244Z,99.99
2023-05-26T05:36:56.131Z,99.99
2023-05-26T05:37:56.044Z,99.99
2023-05-26T05:38:55.964Z,99.99
2023-05-26T05:39:55.882Z,99.99
2023-05-26T05:40:55.807Z,99.99
2023-05-26T05:41:55.759Z,99.99
2023-05-26T05:42:55.662Z,99.99
2023-05-26T05:43:55.576Z,99.99
2023-05-26T05:44:55.499Z,99.99
2023-05-26T05:45:55.416Z,99.99
2023-05-26T05:46:55.367Z,99.99
2023-05-26T05:47:55.326Z,99.99
2023-05-26T05:48:55.182Z,99.99
2023-05-26T05:49:55.107Z,99.99
2023-05-26T05:50:55.026Z,99.99
2023-05-26T05:51:54.950Z,99.99
2023-05-26T05:52:54.866Z,99.99
2023-05-26T05:53:54.798Z,99.99
2023-05-26T05:54:54.713Z,99.99
2023-05-26T05:55:54.638Z,99.99
2023-05-26T05:56:54.570Z,99.99
2023-05-26T05:57:54.499Z,99.99
2023-05-26T05:58:54.436Z,99.99
2023-05-26T05:59:54.319Z,99.99
2023-05-26T06:00:54.252Z,99.99
2023-05-26T06:01:54.212Z,99.99
2023-05-26T06:02:54.297Z,99.99
2023-05-26T06:03:54.055Z,99.99
2023-05-26T06:04:53.946Z,99.99
2023-05-26T06:05:53.859Z,99.99
2023-05-26T06:06:53.774Z,99.99
2023-05-26T06:07:53.696Z,99.99
2023-05-26T06:08:53.625Z,99.99
2023-05-26T06:09:53.551Z,99.99
2023-05-26T06:10:53.467Z,99.99
2023-05-26T06:11:53.388Z,99.99
2023-05-26T06:12:53.315Z,99.99
2023-05-26T06:13:53.232Z,99.99
2023-05-26T06:14:53.155Z,99.99
2023-05-26T06:15:53.083Z,99.99
2023-05-26T06:16:53.033Z,99.99
2023-05-26T06:17:52.934Z,99.99
2023-05-26T06:18:52.849Z,99.99
2023-05-26T06:19:52.905Z,99.99
2023-05-26T06:20:53.075Z,99.99
2023-05-26T06:21:52.609Z,99.99
2023-05-26T06:22:52.532Z,99.99
2023-05-26T06:23:52.452Z,99.99
2023-05-26T06:24:52.371Z,99.99
2023-05-26T06:25:52.298Z,99.99
2023-05-26T06:26:52.227Z,99.99
2023-05-26T06:27:52.148Z,99.99
2023-05-26T06:28:52.070Z,99.99
2023-05-26T06:29:51.991Z,99.99
2023-05-26T06:30:51.909Z,99.99
2023-05-26T06:31:51.940Z,99.99
2023-05-26T06:32:51.834Z,99.99
2023-05-26T06:33:51.686Z,99.99
2023-05-26T06:34:51.617Z,99.99
2023-05-26T06:35:51.526Z,99.99
2023-05-26T06:36:51.444Z,99.99
2023-05-26T06:37:51.384Z,99.99
2023-05-26T06:38:51.294Z,99.99
2023-05-26T06:39:51.214Z,99.99
2023-05-26T06:40:51.136Z,99.99
2023-05-26T06:41:51.057Z,99.99
2023-05-26T06:42:50.995Z,99.99
2023-05-26T06:43:50.906Z,99.99
2023-05-26T06:44:53.559Z,99.99
2023-05-26T06:45:50.754Z,99.99
2023-05-26T06:46:50.746Z,99.99
2023-05-26T06:47:50.661Z,99.99
2023-05-26T06:48:50.518Z,99.99
2023-05-26T06:49:50.444Z,99.99
2023-05-26T06:50:50.373Z,99.99
2023-05-26T06:51:50.282Z,99.99
2023-05-26T06:52:50.209Z,99.99
2023-05-26T06:53:50.148Z,99.99
2023-05-26T06:54:50.050Z,99.99
2023-05-26T06:55:49.981Z,99.99
2023-05-26T06:56:49.903Z,99.99
2023-05-26T06:57:49.819Z,99.99
2023-05-26T06:58:49.748Z,99.99
2023-05-26T06:59:49.658Z,99.99
2023-05-26T07:00:49.587Z,99.99
2023-05-26T07:01:49.521Z,99.99
2023-05-26T07:02:49.496Z,99.99
2023-05-26T07:03:49.355Z,99.99
2023-05-26T07:04:49.281Z,99.99
2023-05-26T07:05:57.124Z,99.99
2023-05-26T07:06:49.177Z,99.99
2023-05-26T07:07:49.056Z,99.99
2023-05-26T07:08:48.967Z,99.99
2023-05-26T07:09:48.882Z,99.99
2023-05-26T07:10:48.820Z,99.99
2023-05-26T07:11:48.739Z,99.99
2023-05-26T07:12:48.662Z,99.99
2023-05-26T07:13:48.583Z,99.99
2023-05-26T07:14:48.516Z,99.99
2023-05-26T07:15:48.434Z,99.99
2023-05-26T07:16:48.441Z,99.99
2023-05-26T07:17:48.301Z,99.99
2023-05-26T07:18:48.212Z,99.99
2023-05-26T07:19:48.133Z,99.99
2023-05-26T07:20:48.537Z,99.99
2023-05-26T07:21:47.970Z,99.99
2023-05-26T07:22:47.892Z,99.99
2023-05-26T07:23:47.817Z,99.99
2023-05-26T07:24:47.738Z,99.99
2023-05-26T07:25:47.660Z,99.99
2023-05-26T07:26:47.598Z,99.99
2023-05-26T07:27:47.503Z,99.99
2023-05-26T07:28:47.446Z,99.99
2023-05-26T07:29:47.352Z,99.99
2023-05-26T07:30:47.495Z,99.99
2023-05-26T07:31:47.237Z,99.99
2023-05-26T07:32:47.134Z,99.99
2023-05-26T07:33:47.044Z,99.99
2023-05-26T07:34:46.983Z,99.99
2023-05-26T07:35:47.108Z,99.99
2023-05-26T07:36:46.815Z,99.99
2023-05-26T07:37:46.740Z,99.99
2023-05-26T07:38:46.662Z,99.99
2023-05-26T07:39:46.602Z,99.99
2023-05-26T07:40:46.500Z,99.99
2023-05-26T07:41:46.423Z,99.99
2023-05-26T07:42:46.358Z,99.99
2023-05-26T07:43:46.272Z,99.99
2023-05-26T07:44:46.191Z,99.99
2023-05-26T07:45:46.268Z,99.99
2023-05-26T07:46:46.061Z,99.99
2023-05-26T07:47:46.029Z,99.99
2023-05-26T07:48:45.889Z,99.99
2023-05-26T07:49:45.834Z,99.99
2023-05-26T07:50:45.986Z,99.99
2023-05-26T07:51:45.659Z,99.99
2023-05-26T07:52:45.591Z,99.99
2023-05-26T07:53:45.515Z,99.99
2023-05-26T07:54:45.428Z,99.99
2023-05-26T07:55:45.440Z,99.99
2023-05-26T07:56:45.273Z,99.99
2023-05-26T07:57:45.204Z,99.99
2023-05-26T07:58:45.123Z,99.99
2023-05-26T07:59:45.044Z,99.99
2023-05-26T08:00:44.979Z,99.99
2023-05-26T08:01:44.892Z,99.99
2023-05-26T08:02:44.901Z,99.99
2023-05-26T08:03:44.792Z,99.99
2023-05-26T08:04:44.667Z,99.99
2023-05-26T08:05:44.787Z,98.68
2023-05-26T08:06:44.508Z,99.35
2023-05-26T08:07:44.433Z,99.99
2023-05-26T08:08:44.358Z,99.99
2023-05-26T08:09:44.282Z,99.88
2023-05-26T08:10:44.221Z,98.14
2023-05-26T08:11:44.137Z,95.36
2023-05-26T08:12:44.053Z,96.13
2023-05-26T08:13:43.969Z,95.65
2023-05-26T08:14:43.897Z,96.42
2023-05-26T08:15:44.000Z,96.99
2023-05-26T08:16:43.802Z,96.99
2023-05-26T08:17:43.737Z,97.09
2023-05-26T08:18:43.595Z,97.09
2023-05-26T08:19:43.522Z,96.80
2023-05-26T08:20:43.488Z,95.45
2023-05-26T08:21:43.368Z,95.36
2023-05-26T08:22:43.289Z,93.34
2023-05-26T08:23:43.213Z,93.15
2023-05-26T08:24:43.143Z,93.15
2023-05-26T08:25:43.256Z,91.94
2023-05-26T08:26:43.858Z,90.31
2023-05-26T08:27:42.927Z,89.50
2023-05-26T08:28:42.841Z,91.27
2023-05-26T08:29:42.760Z,91.17
2023-05-26T08:30:42.685Z,90.59
2023-05-26T08:31:42.630Z,90.12
2023-05-26T08:32:42.557Z,92.33
2023-05-26T08:33:42.469Z,93.38
2023-05-26T08:34:42.384Z,94.25
2023-05-26T08:35:42.301Z,95.12
2023-05-26T08:36:42.231Z,92.52
2023-05-26T08:37:42.152Z,92.13
2023-05-26T08:38:42.076Z,90.98
2023-05-26T08:39:41.997Z,89.83
2023-05-26T08:40:41.926Z,89.44
2023-05-26T08:41:41.839Z,89.54
2023-05-26T08:42:41.773Z,88.29
2023-05-26T08:43:46.463Z,89.64
2023-05-26T08:44:41.613Z,90.73
2023-05-26T08:45:41.542Z,91.89
2023-05-26T08:46:41.496Z,88.77
2023-05-26T08:47:41.410Z,90.06
2023-05-26T08:48:41.311Z,93.24
2023-05-26T08:49:41.234Z,93.33
2023-05-26T08:50:41.159Z,91.03
2023-05-26T08:51:41.082Z,89.97
2023-05-26T08:53:40.964Z,87.46
2023-05-26T08:54:40.856Z,89.58
2023-05-26T08:55:40.780Z,89.87
2023-05-26T08:56:40.696Z,90.06
2023-05-26T08:57:40.626Z,92.66
2023-05-26T08:58:40.551Z,94.01
2023-05-26T08:59:40.482Z,91.60
2023-05-26T09:00:40.395Z,90.45
2023-05-26T09:01:40.528Z,89.01
2023-05-26T09:02:40.263Z,89.72
2023-05-26T09:03:40.192Z,90.55
2023-05-26T09:04:40.096Z,91.94
2023-05-26T09:05:40.034Z,91.17
2023-05-26T09:06:39.938Z,91.17
2023-05-26T09:07:39.873Z,90.78
2023-05-26T09:08:39.793Z,90.59
2023-05-26T09:09:39.720Z,91.27
2023-05-26T09:10:39.637Z,91.27
2023-05-26T09:11:41.642Z,92.32
2023-05-26T09:12:39.493Z,91.94
2023-05-26T09:13:39.410Z,91.17
2023-05-26T09:14:39.338Z,93.19
2023-05-26T09:15:39.296Z,92.03
2023-05-26T09:16:39.230Z,92.42
2023-05-26T09:17:39.111Z,92.03
2023-05-26T09:18:39.068Z,92.94
2023-05-26T09:19:38.966Z,91.75
2023-05-26T09:20:38.998Z,87.22
2023-05-26T09:21:38.809Z,90.83
2023-05-26T09:22:38.737Z,90.34
2023-05-26T09:23:38.663Z,88.61
2023-05-26T09:24:38.583Z,89.09
2023-05-26T09:25:38.510Z,88.71
2023-05-26T09:26:38.436Z,86.21
2023-05-26T09:27:38.353Z,85.14
2023-05-26T09:28:38.283Z,86.30
2023-05-26T09:29:38.204Z,87.07
2023-05-26T09:30:38.166Z,85.53
2023-05-26T09:31:38.060Z,84.95
2023-05-26T09:32:38.046Z,84.28
2023-05-26T09:33:37.909Z,86.69
2023-05-26T09:34:37.844Z,87.79
2023-05-26T09:35:37.759Z,85.77
2023-05-26T09:36:37.683Z,84.22
2023-05-26T09:37:37.609Z,85.77
2023-05-26T09:38:37.547Z,85.67
2023-05-26T09:39:37.470Z,82.39
2023-05-26T09:40:37.418Z,82.29
2023-05-26T09:41:37.316Z,81.52
2023-05-26T09:42:37.244Z,81.24
2023-05-26T09:43:37.166Z,82.87
2023-05-26T09:44:37.083Z,83.45
2023-05-26T09:45:37.038Z,83.64
2023-05-26T09:46:36.956Z,83.74
2023-05-26T09:47:36.892Z,81.04
2023-05-26T09:48:36.799Z,81.52
2023-05-26T09:49:36.708Z,83.50
2023-05-26T09:50:36.637Z,85.61
2023-05-26T09:51:38.790Z,83.45
2023-05-26T09:52:36.485Z,81.27
2023-05-26T09:53:36.408Z,79.74
2023-05-26T09:54:36.332Z,79.64
2023-05-26T09:55:36.270Z,83.88
2023-05-26T09:56:36.184Z,83.78
2023-05-26T09:57:36.110Z,82.92
2023-05-26T09:58:36.035Z,84.84
2023-05-26T09:59:35.957Z,86.24
2023-05-26T10:00:35.908Z,83.40
2023-05-26T10:01:35.856Z,82.92
2023-05-26T10:02:35.762Z,81.85
2023-05-26T10:03:35.659Z,78.61
2023-05-26T10:04:35.588Z,80.69
2023-05-26T10:05:35.698Z,81.60
2023-05-26T10:06:35.437Z,82.18
2023-05-26T10:07:35.361Z,80.83
2023-05-26T10:08:35.284Z,80.51
2023-05-26T10:09:35.218Z,76.40
2023-05-26T10:10:35.136Z,77.26
2023-05-26T10:11:35.060Z,76.88
2023-05-26T10:12:34.989Z,76.01
2023-05-26T10:13:34.923Z,73.99
2023-05-26T10:14:34.832Z,75.43
2023-05-26T10:15:34.776Z,77.17
2023-05-26T10:16:34.740Z,76.98
2023-05-26T10:17:34.665Z,76.01
2023-05-26T10:18:34.539Z,73.89
2023-05-26T10:19:34.467Z,77.26
2023-05-26T10:20:34.472Z,79.77
2023-05-26T10:21:34.313Z,76.20
2023-05-26T10:22:34.254Z,76.78
2023-05-26T10:23:35.428Z,73.89
2023-05-26T10:24:34.100Z,74.57
2023-05-26T10:25:34.019Z,75.24
2023-05-26T10:26:33.946Z,74.08
2023-05-26T10:27:33.868Z,74.08
2023-05-26T10:28:33.797Z,77.40
2023-05-26T10:29:33.726Z,79.77
2023-05-26T10:30:33.640Z,79.72
2023-05-26T10:31:33.633Z,79.43
2023-05-26T10:32:33.540Z,80.97
2023-05-26T10:33:33.430Z,80.20
2023-05-26T10:34:33.356Z,79.91
2023-05-26T10:35:33.272Z,76.24
2023-05-26T10:36:33.208Z,75.51
2023-05-26T10:37:33.129Z,77.83
2023-05-26T10:38:33.069Z,80.82
2023-05-26T10:39:32.980Z,80.24
2023-05-26T10:40:32.904Z,79.17
2023-05-26T10:41:32.834Z,76.37
2023-05-26T10:42:32.754Z,77.57
2023-05-26T10:43:32.690Z,78.92
2023-05-26T10:44:32.605Z,78.54
2023-05-26T10:45:32.535Z,76.67
2023-05-26T10:46:32.506Z,77.15
2023-05-26T10:47:32.431Z,77.92
2023-05-26T10:48:32.313Z,76.47
2023-05-26T10:49:32.244Z,75.12
2023-05-26T10:50:32.179Z,75.99
2023-05-26T10:51:32.099Z,76.57
2023-05-26T10:52:32.027Z,75.41
2023-05-26T10:53:31.945Z,77.25
2023-05-26T10:54:31.882Z,77.34
2023-05-26T10:55:31.814Z,76.67
2023-05-26T10:56:31.727Z,75.74
2023-05-26T10:57:31.653Z,77.67
2023-05-26T10:58:31.584Z,77.48
2023-05-26T10:59:31.505Z,76.22
2023-05-26T11:00:31.459Z,75.35
2023-05-26T11:01:31.405Z,72.84
2023-05-26T11:02:31.312Z,70.84
2023-05-26T11:03:31.249Z,69.40
2023-05-26T11:04:31.134Z,71.81
2023-05-26T11:05:31.058Z,72.49
2023-05-26T11:06:30.988Z,71.23
2023-05-26T11:07:30.998Z,71.62
2023-05-26T11:08:30.842Z,73.07
2023-05-26T11:09:30.778Z,70.36
2023-05-26T11:10:30.959Z,69.59
2023-05-26T11:11:30.637Z,70.84
2023-05-26T11:12:30.543Z,72.30
2023-05-26T11:13:30.477Z,72.58
2023-05-26T11:14:30.407Z,72.68
2023-05-26T11:15:30.327Z,74.04
2023-05-26T11:16:30.289Z,71.72
2023-05-26T11:17:30.217Z,73.46
2023-05-26T11:18:30.118Z,72.20
2023-05-26T11:19:30.039Z,69.01
2023-05-26T11:20:30.016Z,69.40
2023-05-26T11:21:29.891Z,70.84
2023-05-26T11:22:29.819Z,72.20
2023-05-26T11:23:29.762Z,70.65
2023-05-26T11:24:29.694Z,69.59
2023-05-26T11:25:29.643Z,71.66
2023-05-26T11:26:29.546Z,71.36
2023-05-26T11:27:29.463Z,72.33
2023-05-26T11:28:29.380Z,72.14
2023-05-26T11:29:29.361Z,70.50
2023-05-26T11:30:29.243Z,71.46
2023-05-26T11:31:29.196Z,71.17
2023-05-26T11:32:29.162Z,71.17
2023-05-26T11:33:29.028Z,71.94
2023-05-26T11:34:28.952Z,72.62
2023-05-26T11:35:28.882Z,73.68
2023-05-26T11:36:28.804Z,73.49
2023-05-26T11:37:28.731Z,74.01
2023-05-26T11:38:28.670Z,75.37
2023-05-26T11:39:28.584Z,72.85
2023-05-26T11:40:28.521Z,71.59
2023-05-26T11:41:28.561Z,74.11
2023-05-26T11:42:28.372Z,71.59
2023-05-26T11:43:28.309Z,73.08
2023-05-26T11:44:28.223Z,70.53
2023-05-26T11:45:28.151Z,69.79
2023-05-26T11:46:28.137Z,71.34
2023-05-26T11:47:28.086Z,70.37
2023-05-26T11:48:27.952Z,70.08
2023-05-26T11:49:27.867Z,69.31
2023-05-26T11:50:27.796Z,69.59
2023-05-26T11:51:27.726Z,70.86
2023-05-26T11:52:27.661Z,69.11
2023-05-26T11:53:27.614Z,69.31
2023-05-26T11:54:27.505Z,71.14
2023-05-26T11:55:27.432Z,69.31
2023-05-26T11:56:27.362Z,69.21
2023-05-26T11:57:27.289Z,69.59
2023-05-26T11:58:27.214Z,71.66
2023-05-26T11:59:27.166Z,71.47
2023-05-26T12:00:27.074Z,72.15
2023-05-26T12:01:27.027Z,70.21
2023-05-26T12:02:27.057Z,69.15
2023-05-26T12:03:26.938Z,68.47
2023-05-26T12:04:26.898Z,67.88
2023-05-26T12:05:26.713Z,68.50
2023-05-26T12:06:26.652Z,68.08
2023-05-26T12:07:26.571Z,67.79
2023-05-26T12:08:26.510Z,68.27
2023-05-26T12:09:26.423Z,69.05
2023-05-26T12:10:26.357Z,68.56
2023-05-26T12:11:26.298Z,69.73
2023-05-26T12:12:26.228Z,69.15
2023-05-26T12:13:26.151Z,68.95
2023-05-26T12:14:26.078Z,70.11
2023-05-26T12:15:26.004Z,69.79
2023-05-26T12:16:25.983Z,69.73
2023-05-26T12:17:25.858Z,69.69
2023-05-26T12:18:25.782Z,68.82
2023-05-26T12:19:25.710Z,70.37
2023-05-26T12:20:42.594Z,70.08
2023-05-26T12:21:25.576Z,71.34
2023-05-26T12:22:25.496Z,70.47
2023-05-26T12:23:25.439Z,70.14
2023-05-26T12:24:25.353Z,71.34
2023-05-26T12:25:25.294Z,70.86
2023-05-26T12:26:25.211Z,70.66
2023-05-26T12:27:25.138Z,70.08
2023-05-26T12:28:25.070Z,69.98
2023-05-26T12:29:25.001Z,71.14
2023-05-26T12:30:30.509Z,71.04
2023-05-26T12:31:24.882Z,72.15
2023-05-26T12:32:24.806Z,70.31
2023-05-26T12:33:24.706Z,70.40
2023-05-26T12:34:24.649Z,67.02
2023-05-26T12:35:24.570Z,67.05
2023-05-26T12:36:24.500Z,66.66
2023-05-26T12:37:24.422Z,66.75
2023-05-26T12:38:24.347Z,65.11
2023-05-26T12:39:24.279Z,66.08
2023-05-26T12:40:24.206Z,65.24
2023-05-26T12:41:24.132Z,63.69
2023-05-26T12:42:24.064Z,63.98
2023-05-26T12:43:23.996Z,64.56
2023-05-26T12:44:23.936Z,63.30
2023-05-26T12:45:23.850Z,62.75
2023-05-26T12:46:23.778Z,65.66
2023-05-26T12:47:23.734Z,69.06
2023-05-26T12:48:23.761Z,64.88
2023-05-26T12:49:23.563Z,64.20
2023-05-26T12:50:23.503Z,63.69
2023-05-26T12:51:23.426Z,64.17
2023-05-26T12:52:23.353Z,62.82